sensor_id;sensor_type;location;lat;lon;timestamp;P1;durP1;ratioP1;P2;durP2;ratioP2
47519;SDS011;33252;48.122;11.538;2022-09-13T00:00:36;4.78;;;2.75;;
47519;SDS011;33252;48.122;11.538;2022-09-13T00:03:02;3.08;;;2.72;;
47519;SDS011;33252;48.122;11.538;2022-09-13T00:05:29;5.00;;;3.05;;
47519;SDS011;33252;48.122;11.538;2022-09-13T00:07:55;2.75;;;2.50;;
47519;SDS011;33252;48.122;11.538;2022-09-13T00:10:21;3.53;;;2.80;;
47519;SDS011;33252;48.122;11.538;2022-09-13T00:12:47;3.83;;;3.17;;
47519;SDS011;33252;48.122;11.538;2022-09-13T00:15:13;4.07;;;2.95;;
47519;SDS011;33252;48.122;11.538;2022-09-13T00:17:39;3.10;;;2.45;;
47519;SDS011;33252;48.122;11.538;2022-09-13T00:20:05;4.90;;;2.50;;
47519;SDS011;33252;48.122;11.538;2022-09-13T00:22:31;3.42;;;2.83;;
47519;SDS011;33252;48.122;11.538;2022-09-13T00:24:56;4.20;;;2.83;;
47519;SDS011;33252;48.122;11.538;2022-09-13T00:27:22;3.63;;;2.78;;
47519;SDS011;33252;48.122;11.538;2022-09-13T00:29:48;3.55;;;2.53;;
47519;SDS011;33252;48.122;11.538;2022-09-13T00:32:13;3.10;;;2.53;;
47519;SDS011;33252;48.122;11.538;2022-09-13T00:34:39;3.97;;;3.05;;
47519;SDS011;33252;48.122;11.538;2022-09-13T00:37:05;5.68;;;2.80;;
47519;SDS011;33252;48.122;11.538;2022-09-13T00:39:30;4.60;;;2.47;;
47519;SDS011;33252;48.122;11.538;2022-09-13T00:41:57;5.13;;;2.50;;
47519;SDS011;33252;48.122;11.538;2022-09-13T00:53:12;4.03;;;2.25;;
47519;SDS011;33252;48.122;11.538;2022-09-13T00:56:40;6.40;;;2.65;;
47519;SDS011;33252;48.122;11.538;2022-09-13T00:58:57;2.28;;;1.77;;
47519;SDS011;33252;48.122;11.538;2022-09-13T01:01:28;2.80;;;2.45;;
47519;SDS011;33252;48.122;11.538;2022-09-13T01:04:04;3.83;;;2.45;;
47519;SDS011;33252;48.122;11.538;2022-09-13T01:06:30;3.63;;;2.95;;
47519;SDS011;33252;48.122;11.538;2022-09-13T01:09:00;6.47;;;2.50;;
47519;SDS011;33252;48.122;11.538;2022-09-13T01:11:30;4.70;;;2.90;;
47519;SDS011;33252;48.122;11.538;2022-09-13T01:14:08;4.93;;;3.13;;
47519;SDS011;33252;48.122;11.538;2022-09-13T01:16:34;2.85;;;2.58;;
47519;SDS011;33252;48.122;11.538;2022-09-13T01:18:59;4.93;;;2.58;;
47519;SDS011;33252;48.122;11.538;2022-09-13T01:37:53;4.35;;;2.53;;
47519;SDS011;33252;48.122;11.538;2022-09-13T01:43:18;2.53;;;2.20;;
47519;SDS011;33252;48.122;11.538;2022-09-13T01:51:25;6.40;;;2.83;;
47519;SDS011;33252;48.122;11.538;2022-09-13T01:56:49;3.05;;;2.75;;
47519;SDS011;33252;48.122;11.538;2022-09-13T01:59:32;4.38;;;2.25;;
47519;SDS011;33252;48.122;11.538;2022-09-13T02:02:11;3.40;;;2.30;;
47519;SDS011;33252;48.122;11.538;2022-09-13T02:04:50;4.25;;;2.33;;
47519;SDS011;33252;48.122;11.538;2022-09-13T02:07:20;2.88;;;2.28;;
47519;SDS011;33252;48.122;11.538;2022-09-13T02:09:50;2.25;;;1.67;;
47519;SDS011;33252;48.122;11.538;2022-09-13T02:12:23;3.85;;;2.35;;
47519;SDS011;33252;48.122;11.538;2022-09-13T02:15:37;3.35;;;2.38;;
47519;SDS011;33252;48.122;11.538;2022-09-13T02:17:48;5.75;;;2.33;;
47519;SDS011;33252;48.122;11.538;2022-09-13T02:20:26;3.85;;;3.00;;
47519;SDS011;33252;48.122;11.538;2022-09-13T02:22:58;4.25;;;2.10;;
47519;SDS011;33252;48.122;11.538;2022-09-13T02:25:27;4.38;;;2.53;;
47519;SDS011;33252;48.122;11.538;2022-09-13T02:27:59;3.90;;;2.55;;
47519;SDS011;33252;48.122;11.538;2022-09-13T02:30:30;4.40;;;2.63;;
47519;SDS011;33252;48.122;11.538;2022-09-13T02:33:06;5.75;;;2.50;;
47519;SDS011;33252;48.122;11.538;2022-09-13T02:36:11;4.00;;;2.17;;
47519;SDS011;33252;48.122;11.538;2022-09-13T02:38:42;4.00;;;1.90;;
47519;SDS011;33252;48.122;11.538;2022-09-13T02:46:42;2.90;;;2.13;;
47519;SDS011;33252;48.122;11.538;2022-09-13T02:57:21;3.33;;;2.47;;
47519;SDS011;33252;48.122;11.538;2022-09-13T02:59:58;3.50;;;2.15;;
47519;SDS011;33252;48.122;11.538;2022-09-13T03:02:24;3.00;;;2.30;;
47519;SDS011;33252;48.122;11.538;2022-09-13T03:04:55;4.05;;;2.25;;
47519;SDS011;33252;48.122;11.538;2022-09-13T03:07:24;3.35;;;1.83;;
47519;SDS011;33252;48.122;11.538;2022-09-13T03:09:51;3.38;;;1.95;;
47519;SDS011;33252;48.122;11.538;2022-09-13T03:15:23;1.98;;;1.55;;
47519;SDS011;33252;48.122;11.538;2022-09-13T03:29:23;3.05;;;2.45;;
47519;SDS011;33252;48.122;11.538;2022-09-13T03:37:10;3.50;;;2.08;;
47519;SDS011;33252;48.122;11.538;2022-09-13T03:39:49;2.77;;;1.87;;
47519;SDS011;33252;48.122;11.538;2022-09-13T03:44:52;3.70;;;1.95;;
47519;SDS011;33252;48.122;11.538;2022-09-13T03:47:20;3.55;;;2.50;;
47519;SDS011;33252;48.122;11.538;2022-09-13T03:49:49;2.13;;;1.55;;
47519;SDS011;33252;48.122;11.538;2022-09-13T03:52:16;4.75;;;2.22;;
47519;SDS011;33252;48.122;11.538;2022-09-13T03:54:43;2.78;;;2.13;;
47519;SDS011;33252;48.122;11.538;2022-09-13T03:57:12;3.47;;;2.55;;
47519;SDS011;33252;48.122;11.538;2022-09-13T03:59:42;3.10;;;2.03;;
47519;SDS011;33252;48.122;11.538;2022-09-13T04:02:11;3.90;;;1.83;;
47519;SDS011;33252;48.122;11.538;2022-09-13T04:04:38;2.92;;;2.33;;
47519;SDS011;33252;48.122;11.538;2022-09-13T04:07:05;2.17;;;1.70;;
47519;SDS011;33252;48.122;11.538;2022-09-13T04:09:31;3.95;;;1.77;;
47519;SDS011;33252;48.122;11.538;2022-09-13T04:11:56;3.30;;;2.17;;
47519;SDS011;33252;48.122;11.538;2022-09-13T04:14:22;2.35;;;1.33;;
47519;SDS011;33252;48.122;11.538;2022-09-13T04:16:50;2.67;;;1.45;;
47519;SDS011;33252;48.122;11.538;2022-09-13T04:19:17;3.45;;;2.08;;
47519;SDS011;33252;48.122;11.538;2022-09-13T04:21:42;2.45;;;1.88;;
47519;SDS011;33252;48.122;11.538;2022-09-13T04:24:08;1.80;;;1.55;;
47519;SDS011;33252;48.122;11.538;2022-09-13T04:26:33;2.03;;;1.25;;
47519;SDS011;33252;48.122;11.538;2022-09-13T04:28:59;1.65;;;1.10;;
47519;SDS011;33252;48.122;11.538;2022-09-13T04:31:25;1.60;;;1.20;;
47519;SDS011;33252;48.122;11.538;2022-09-13T04:33:51;1.88;;;1.10;;
47519;SDS011;33252;48.122;11.538;2022-09-13T04:36:17;1.60;;;1.10;;
47519;SDS011;33252;48.122;11.538;2022-09-13T04:38:42;1.30;;;0.90;;
47519;SDS011;33252;48.122;11.538;2022-09-13T04:41:10;5.13;;;0.90;;
47519;SDS011;33252;48.122;11.538;2022-09-13T04:43:37;1.15;;;0.90;;
47519;SDS011;33252;48.122;11.538;2022-09-13T04:46:03;1.95;;;1.13;;
47519;SDS011;33252;48.122;11.538;2022-09-13T04:48:28;4.22;;;1.55;;
47519;SDS011;33252;48.122;11.538;2022-09-13T04:50:59;1.75;;;1.10;;
47519;SDS011;33252;48.122;11.538;2022-09-13T04:53:26;1.65;;;1.15;;
47519;SDS011;33252;48.122;11.538;2022-09-13T04:55:52;2.03;;;1.30;;
47519;SDS011;33252;48.122;11.538;2022-09-13T04:58:28;1.83;;;1.05;;
47519;SDS011;33252;48.122;11.538;2022-09-13T05:00:59;1.92;;;0.95;;
47519;SDS011;33252;48.122;11.538;2022-09-13T05:03:29;2.15;;;1.33;;
47519;SDS011;33252;48.122;11.538;2022-09-13T05:06:00;2.35;;;1.13;;
47519;SDS011;33252;48.122;11.538;2022-09-13T05:08:29;3.22;;;1.88;;
47519;SDS011;33252;48.122;11.538;2022-09-13T05:10:55;6.53;;;1.40;;
47519;SDS011;33252;48.122;11.538;2022-09-13T05:13:22;3.30;;;1.67;;
47519;SDS011;33252;48.122;11.538;2022-09-13T05:15:48;2.58;;;1.13;;
47519;SDS011;33252;48.122;11.538;2022-09-13T05:18:14;1.33;;;1.05;;
47519;SDS011;33252;48.122;11.538;2022-09-13T05:20:40;4.28;;;1.50;;
47519;SDS011;33252;48.122;11.538;2022-09-13T05:23:05;3.35;;;1.27;;
47519;SDS011;33252;48.122;11.538;2022-09-13T05:25:31;3.15;;;1.02;;
47519;SDS011;33252;48.122;11.538;2022-09-13T05:27:57;1.10;;;0.80;;
47519;SDS011;33252;48.122;11.538;2022-09-13T05:30:22;2.10;;;1.17;;
47519;SDS011;33252;48.122;11.538;2022-09-13T05:32:48;4.28;;;1.10;;
47519;SDS011;33252;48.122;11.538;2022-09-13T05:35:14;2.75;;;1.20;;
47519;SDS011;33252;48.122;11.538;2022-09-13T05:37:39;2.58;;;0.95;;
47519;SDS011;33252;48.122;11.538;2022-09-13T05:40:05;1.92;;;1.30;;
47519;SDS011;33252;48.122;11.538;2022-09-13T05:42:31;3.65;;;1.05;;
47519;SDS011;33252;48.122;11.538;2022-09-13T05:44:57;1.85;;;1.00;;
47519;SDS011;33252;48.122;11.538;2022-09-13T05:47:22;2.38;;;0.90;;
47519;SDS011;33252;48.122;11.538;2022-09-13T05:49:48;3.28;;;0.88;;
47519;SDS011;33252;48.122;11.538;2022-09-13T05:52:13;1.75;;;1.00;;
47519;SDS011;33252;48.122;11.538;2022-09-13T05:54:39;3.70;;;1.13;;
47519;SDS011;33252;48.122;11.538;2022-09-13T05:57:05;1.83;;;1.10;;
47519;SDS011;33252;48.122;11.538;2022-09-13T05:59:30;3.35;;;1.25;;
47519;SDS011;33252;48.122;11.538;2022-09-13T06:01:56;4.00;;;1.13;;
47519;SDS011;33252;48.122;11.538;2022-09-13T06:04:22;3.88;;;1.20;;
47519;SDS011;33252;48.122;11.538;2022-09-13T06:06:48;1.65;;;1.20;;
47519;SDS011;33252;48.122;11.538;2022-09-13T06:09:14;3.00;;;1.15;;
47519;SDS011;33252;48.122;11.538;2022-09-13T06:11:40;4.00;;;1.23;;
47519;SDS011;33252;48.122;11.538;2022-09-13T06:14:05;3.78;;;1.33;;
47519;SDS011;33252;48.122;11.538;2022-09-13T06:16:31;2.17;;;1.10;;
47519;SDS011;33252;48.122;11.538;2022-09-13T06:18:57;3.20;;;0.77;;
47519;SDS011;33252;48.122;11.538;2022-09-13T06:21:23;1.58;;;0.70;;
47519;SDS011;33252;48.122;11.538;2022-09-13T06:23:50;2.50;;;1.15;;
47519;SDS011;33252;48.122;11.538;2022-09-13T06:26:17;2.15;;;1.27;;
47519;SDS011;33252;48.122;11.538;2022-09-13T06:28:51;2.72;;;1.40;;
47519;SDS011;33252;48.122;11.538;2022-09-13T06:31:20;3.45;;;1.10;;
47519;SDS011;33252;48.122;11.538;2022-09-13T06:33:54;1.92;;;0.82;;
47519;SDS011;33252;48.122;11.538;2022-09-13T06:36:24;2.35;;;0.70;;
47519;SDS011;33252;48.122;11.538;2022-09-13T06:38:50;2.60;;;0.80;;
47519;SDS011;33252;48.122;11.538;2022-09-13T06:41:17;2.28;;;1.00;;
47519;SDS011;33252;48.122;11.538;2022-09-13T06:43:44;2.33;;;1.00;;
47519;SDS011;33252;48.122;11.538;2022-09-13T06:46:12;1.67;;;0.73;;
47519;SDS011;33252;48.122;11.538;2022-09-13T06:48:42;3.15;;;1.10;;
47519;SDS011;33252;48.122;11.538;2022-09-13T06:51:12;2.33;;;0.93;;
47519;SDS011;33252;48.122;11.538;2022-09-13T06:53:43;1.38;;;1.00;;
47519;SDS011;33252;48.122;11.538;2022-09-13T06:56:11;1.77;;;0.88;;
47519;SDS011;33252;48.122;11.538;2022-09-13T06:58:40;2.17;;;0.80;;
47519;SDS011;33252;48.122;11.538;2022-09-13T07:01:20;2.40;;;0.70;;
47519;SDS011;33252;48.122;11.538;2022-09-13T07:04:02;1.38;;;0.85;;
47519;SDS011;33252;48.122;11.538;2022-09-13T07:06:28;1.27;;;0.90;;
47519;SDS011;33252;48.122;11.538;2022-09-13T07:08:56;1.35;;;0.70;;
47519;SDS011;33252;48.122;11.538;2022-09-13T07:11:24;2.53;;;0.80;;
47519;SDS011;33252;48.122;11.538;2022-09-13T07:13:54;2.85;;;0.90;;
47519;SDS011;33252;48.122;11.538;2022-09-13T07:16:22;1.55;;;1.02;;
47519;SDS011;33252;48.122;11.538;2022-09-13T07:18:55;3.38;;;0.90;;
47519;SDS011;33252;48.122;11.538;2022-09-13T07:21:22;4.55;;;1.00;;
47519;SDS011;33252;48.122;11.538;2022-09-13T07:23:48;1.92;;;1.15;;
47519;SDS011;33252;48.122;11.538;2022-09-13T07:26:15;4.25;;;1.23;;
47519;SDS011;33252;48.122;11.538;2022-09-13T07:28:41;1.83;;;1.10;;
47519;SDS011;33252;48.122;11.538;2022-09-13T07:31:14;1.63;;;0.75;;
47519;SDS011;33252;48.122;11.538;2022-09-13T07:33:41;9.13;;;1.10;;
47519;SDS011;33252;48.122;11.538;2022-09-13T07:36:09;1.38;;;0.88;;
47519;SDS011;33252;48.122;11.538;2022-09-13T07:38:36;3.70;;;0.95;;
47519;SDS011;33252;48.122;11.538;2022-09-13T07:41:04;2.15;;;0.60;;
47519;SDS011;33252;48.122;11.538;2022-09-13T07:43:33;3.35;;;1.00;;
47519;SDS011;33252;48.122;11.538;2022-09-13T07:46:06;2.85;;;0.82;;
47519;SDS011;33252;48.122;11.538;2022-09-13T07:48:35;2.03;;;0.57;;
47519;SDS011;33252;48.122;11.538;2022-09-13T07:51:16;1.98;;;0.60;;
47519;SDS011;33252;48.122;11.538;2022-09-13T07:53:45;4.10;;;0.93;;
47519;SDS011;33252;48.122;11.538;2022-09-13T07:56:15;1.90;;;0.90;;
47519;SDS011;33252;48.122;11.538;2022-09-13T07:58:44;1.15;;;0.60;;
47519;SDS011;33252;48.122;11.538;2022-09-13T08:03:49;1.15;;;0.60;;
47519;SDS011;33252;48.122;11.538;2022-09-13T08:06:16;1.13;;;0.60;;
47519;SDS011;33252;48.122;11.538;2022-09-13T08:08:42;2.38;;;0.70;;
47519;SDS011;33252;48.122;11.538;2022-09-13T08:11:09;0.50;;;0.40;;
47519;SDS011;33252;48.122;11.538;2022-09-13T08:13:44;1.85;;;0.60;;
47519;SDS011;33252;48.122;11.538;2022-09-13T08:16:10;2.25;;;0.75;;
47519;SDS011;33252;48.122;11.538;2022-09-13T08:18:36;2.60;;;0.65;;
47519;SDS011;33252;48.122;11.538;2022-09-13T08:21:02;3.83;;;0.80;;
47519;SDS011;33252;48.122;11.538;2022-09-13T08:23:28;1.38;;;0.50;;
47519;SDS011;33252;48.122;11.538;2022-09-13T08:25:53;1.08;;;0.40;;
47519;SDS011;33252;48.122;11.538;2022-09-13T08:28:24;0.82;;;0.50;;
47519;SDS011;33252;48.122;11.538;2022-09-13T08:30:50;1.25;;;0.55;;
47519;SDS011;33252;48.122;11.538;2022-09-13T08:33:16;1.55;;;0.60;;
47519;SDS011;33252;48.122;11.538;2022-09-13T08:35:48;1.00;;;0.50;;
47519;SDS011;33252;48.122;11.538;2022-09-13T08:38:15;1.17;;;0.50;;
47519;SDS011;33252;48.122;11.538;2022-09-13T08:40:42;1.30;;;0.82;;
47519;SDS011;33252;48.122;11.538;2022-09-13T08:45:50;2.22;;;0.50;;
47519;SDS011;33252;48.122;11.538;2022-09-13T08:48:40;2.30;;;0.47;;
47519;SDS011;33252;48.122;11.538;2022-09-13T08:51:19;0.73;;;0.50;;
47519;SDS011;33252;48.122;11.538;2022-09-13T08:53:54;1.23;;;0.80;;
47519;SDS011;33252;48.122;11.538;2022-09-13T08:56:22;1.08;;;0.68;;
47519;SDS011;33252;48.122;11.538;2022-09-13T09:06:29;0.77;;;0.57;;
47519;SDS011;33252;48.122;11.538;2022-09-13T09:09:09;1.15;;;0.50;;
47519;SDS011;33252;48.122;11.538;2022-09-13T09:11:48;3.47;;;0.68;;
47519;SDS011;33252;48.122;11.538;2022-09-13T09:16:59;1.90;;;0.90;;
47519;SDS011;33252;48.122;11.538;2022-09-13T09:19:46;2.75;;;0.70;;
47519;SDS011;33252;48.122;11.538;2022-09-13T09:22:18;0.82;;;0.50;;
47519;SDS011;33252;48.122;11.538;2022-09-13T09:24:53;1.13;;;0.60;;
47519;SDS011;33252;48.122;11.538;2022-09-13T09:27:21;1.17;;;0.70;;
47519;SDS011;33252;48.122;11.538;2022-09-13T09:29:48;1.55;;;0.75;;
47519;SDS011;33252;48.122;11.538;2022-09-13T09:35:45;1.05;;;0.70;;
47519;SDS011;33252;48.122;11.538;2022-09-13T09:43:40;6.07;;;0.98;;
47519;SDS011;33252;48.122;11.538;2022-09-13T09:46:11;2.72;;;0.55;;
47519;SDS011;33252;48.122;11.538;2022-09-13T09:48:48;2.25;;;0.60;;
47519;SDS011;33252;48.122;11.538;2022-09-13T09:51:18;2.20;;;0.73;;
47519;SDS011;33252;48.122;11.538;2022-09-13T09:53:48;0.73;;;0.50;;
47519;SDS011;33252;48.122;11.538;2022-09-13T09:56:24;2.25;;;0.73;;
47519;SDS011;33252;48.122;11.538;2022-09-13T09:58:56;1.27;;;0.93;;
47519;SDS011;33252;48.122;11.538;2022-09-13T10:01:32;2.58;;;0.50;;
47519;SDS011;33252;48.122;11.538;2022-09-13T10:04:14;2.15;;;0.70;;
47519;SDS011;33252;48.122;11.538;2022-09-13T10:06:46;0.80;;;0.50;;
47519;SDS011;33252;48.122;11.538;2022-09-13T10:09:19;0.95;;;0.90;;
47519;SDS011;33252;48.122;11.538;2022-09-13T10:11:56;1.42;;;0.57;;
47519;SDS011;33252;48.122;11.538;2022-09-13T10:14:42;2.42;;;0.85;;
47519;SDS011;33252;48.122;11.538;2022-09-13T10:22:24;2.30;;;1.00;;
47519;SDS011;33252;48.122;11.538;2022-09-13T10:24:50;1.15;;;0.65;;
47519;SDS011;33252;48.122;11.538;2022-09-13T10:27:22;1.00;;;0.65;;
47519;SDS011;33252;48.122;11.538;2022-09-13T10:30:00;1.13;;;0.60;;
47519;SDS011;33252;48.122;11.538;2022-09-13T10:32:29;1.88;;;0.73;;
47519;SDS011;33252;48.122;11.538;2022-09-13T10:35:05;10.55;;;9.20;;
47519;SDS011;33252;48.122;11.538;2022-09-13T10:37:40;5.00;;;2.22;;
47519;SDS011;33252;48.122;11.538;2022-09-13T10:40:16;1.00;;;0.77;;
47519;SDS011;33252;48.122;11.538;2022-09-13T10:42:52;3.85;;;0.85;;
47519;SDS011;33252;48.122;11.538;2022-09-13T10:45:23;3.22;;;0.98;;
47519;SDS011;33252;48.122;11.538;2022-09-13T10:47:52;1.23;;;1.02;;
47519;SDS011;33252;48.122;11.538;2022-09-13T10:50:27;1.45;;;0.82;;
47519;SDS011;33252;48.122;11.538;2022-09-13T10:52:55;1.73;;;0.60;;
47519;SDS011;33252;48.122;11.538;2022-09-13T10:55:24;0.98;;;0.50;;
47519;SDS011;33252;48.122;11.538;2022-09-13T11:00:36;1.08;;;0.55;;
47519;SDS011;33252;48.122;11.538;2022-09-13T11:08:35;3.70;;;0.77;;
47519;SDS011;33252;48.122;11.538;2022-09-13T11:11:23;1.00;;;0.65;;
47519;SDS011;33252;48.122;11.538;2022-09-13T11:13:56;1.55;;;0.63;;
47519;SDS011;33252;48.122;11.538;2022-09-13T11:19:21;1.10;;;0.52;;
47519;SDS011;33252;48.122;11.538;2022-09-13T11:30:16;1.23;;;0.85;;
47519;SDS011;33252;48.122;11.538;2022-09-13T11:35:53;1.45;;;0.60;;
47519;SDS011;33252;48.122;11.538;2022-09-13T11:46:44;0.70;;;0.47;;
47519;SDS011;33252;48.122;11.538;2022-09-13T11:49:32;0.95;;;0.50;;
47519;SDS011;33252;48.122;11.538;2022-09-13T11:57:10;0.80;;;0.52;;
47519;SDS011;33252;48.122;11.538;2022-09-13T12:00:04;3.63;;;0.70;;
47519;SDS011;33252;48.122;11.538;2022-09-13T12:02:41;2.30;;;0.50;;
47519;SDS011;33252;48.122;11.538;2022-09-13T12:05:14;1.33;;;0.77;;
47519;SDS011;33252;48.122;11.538;2022-09-13T12:07:57;1.75;;;0.55;;
47519;SDS011;33252;48.122;11.538;2022-09-13T12:13:03;2.22;;;0.50;;
47519;SDS011;33252;48.122;11.538;2022-09-13T12:15:35;2.33;;;0.43;;
47519;SDS011;33252;48.122;11.538;2022-09-13T12:18:11;1.65;;;0.45;;
47519;SDS011;33252;48.122;11.538;2022-09-13T12:20:51;0.40;;;0.30;;
47519;SDS011;33252;48.122;11.538;2022-09-13T12:23:32;2.60;;;0.60;;
47519;SDS011;33252;48.122;11.538;2022-09-13T12:26:07;2.83;;;0.50;;
47519;SDS011;33252;48.122;11.538;2022-09-13T12:28:45;1.25;;;0.75;;
47519;SDS011;33252;48.122;11.538;2022-09-13T12:31:27;2.25;;;0.40;;
47519;SDS011;33252;48.122;11.538;2022-09-13T12:33:54;0.80;;;0.50;;
47519;SDS011;33252;48.122;11.538;2022-09-13T12:55:42;2.33;;;0.50;;
47519;SDS011;33252;48.122;11.538;2022-09-13T13:04:01;0.98;;;0.30;;
47519;SDS011;33252;48.122;11.538;2022-09-13T13:12:52;3.78;;;0.68;;
47519;SDS011;33252;48.122;11.538;2022-09-13T13:14:55;0.77;;;0.30;;
47519;SDS011;33252;48.122;11.538;2022-09-13T13:25:59;0.88;;;0.30;;
47519;SDS011;33252;48.122;11.538;2022-09-13T13:41:59;1.92;;;0.50;;
47519;SDS011;33252;48.122;11.538;2022-09-13T13:49:48;2.08;;;0.50;;
47519;SDS011;33252;48.122;11.538;2022-09-13T13:54:59;2.45;;;0.50;;
47519;SDS011;33252;48.122;11.538;2022-09-13T14:02:51;0.50;;;0.40;;
47519;SDS011;33252;48.122;11.538;2022-09-13T14:11:09;2.38;;;0.40;;
47519;SDS011;33252;48.122;11.538;2022-09-13T14:16:24;2.33;;;0.30;;
47519;SDS011;33252;48.122;11.538;2022-09-13T14:21:36;0.70;;;0.40;;
47519;SDS011;33252;48.122;11.538;2022-09-13T14:24:08;2.47;;;0.40;;
47519;SDS011;33252;48.122;11.538;2022-09-13T14:26:43;1.63;;;0.47;;
47519;SDS011;33252;48.122;11.538;2022-09-13T14:29:12;1.73;;;0.47;;
47519;SDS011;33252;48.122;11.538;2022-09-13T14:31:48;2.85;;;0.55;;
47519;SDS011;33252;48.122;11.538;2022-09-13T14:34:29;3.30;;;0.70;;
47519;SDS011;33252;48.122;11.538;2022-09-13T14:37:00;0.98;;;0.47;;
47519;SDS011;33252;48.122;11.538;2022-09-13T14:39:29;1.20;;;0.52;;
47519;SDS011;33252;48.122;11.538;2022-09-13T14:41:59;0.85;;;0.55;;
47519;SDS011;33252;48.122;11.538;2022-09-13T14:44:37;1.63;;;0.38;;
47519;SDS011;33252;48.122;11.538;2022-09-13T14:47:13;3.63;;;0.60;;
47519;SDS011;33252;48.122;11.538;2022-09-13T14:49:58;1.55;;;1.27;;
47519;SDS011;33252;48.122;11.538;2022-09-13T14:52:31;2.53;;;0.50;;
47519;SDS011;33252;48.122;11.538;2022-09-13T14:55:11;1.02;;;0.50;;
47519;SDS011;33252;48.122;11.538;2022-09-13T14:57:42;1.70;;;0.60;;
47519;SDS011;33252;48.122;11.538;2022-09-13T15:00:15;3.92;;;0.50;;
47519;SDS011;33252;48.122;11.538;2022-09-13T15:03:00;0.80;;;0.40;;
47519;SDS011;33252;48.122;11.538;2022-09-13T15:05:35;0.65;;;0.47;;
47519;SDS011;33252;48.122;11.538;2022-09-13T15:08:21;4.65;;;0.50;;
47519;SDS011;33252;48.122;11.538;2022-09-13T15:10:59;0.65;;;0.52;;
47519;SDS011;33252;48.122;11.538;2022-09-13T15:13:28;1.13;;;0.60;;
47519;SDS011;33252;48.122;11.538;2022-09-13T15:15:54;2.15;;;0.60;;
47519;SDS011;33252;48.122;11.538;2022-09-13T15:23:25;0.80;;;0.40;;
47519;SDS011;33252;48.122;11.538;2022-09-13T15:26:07;2.95;;;1.02;;
47519;SDS011;33252;48.122;11.538;2022-09-13T15:31:22;3.97;;;0.70;;
47519;SDS011;33252;48.122;11.538;2022-09-13T15:39:40;2.75;;;0.90;;
47519;SDS011;33252;48.122;11.538;2022-09-13T15:42:07;2.40;;;1.00;;
47519;SDS011;33252;48.122;11.538;2022-09-13T15:44:33;1.45;;;0.68;;
47519;SDS011;33252;48.122;11.538;2022-09-13T15:46:59;1.38;;;0.70;;
47519;SDS011;33252;48.122;11.538;2022-09-13T15:49:28;1.55;;;0.60;;
47519;SDS011;33252;48.122;11.538;2022-09-13T15:51:59;2.65;;;0.80;;
47519;SDS011;33252;48.122;11.538;2022-09-13T15:54:30;1.63;;;0.50;;
47519;SDS011;33252;48.122;11.538;2022-09-13T15:56:59;1.80;;;0.43;;
47519;SDS011;33252;48.122;11.538;2022-09-13T15:59:24;2.35;;;0.50;;
47519;SDS011;33252;48.122;11.538;2022-09-13T16:01:50;1.08;;;0.30;;
47519;SDS011;33252;48.122;11.538;2022-09-13T16:04:17;3.45;;;0.60;;
47519;SDS011;33252;48.122;11.538;2022-09-13T16:06:43;1.13;;;0.52;;
47519;SDS011;33252;48.122;11.538;2022-09-13T16:14:07;2.50;;;0.40;;
47519;SDS011;33252;48.122;11.538;2022-09-13T16:16:33;1.13;;;0.50;;
47519;SDS011;33252;48.122;11.538;2022-09-13T16:18:58;3.13;;;0.60;;
47519;SDS011;33252;48.122;11.538;2022-09-13T16:21:24;1.60;;;0.50;;
47519;SDS011;33252;48.122;11.538;2022-09-13T16:23:50;0.60;;;0.47;;
47519;SDS011;33252;48.122;11.538;2022-09-13T16:26:15;3.05;;;0.88;;
47519;SDS011;33252;48.122;11.538;2022-09-13T16:28:41;1.40;;;0.60;;
47519;SDS011;33252;48.122;11.538;2022-09-13T16:31:07;2.33;;;0.63;;
47519;SDS011;33252;48.122;11.538;2022-09-13T16:33:33;2.33;;;0.60;;
47519;SDS011;33252;48.122;11.538;2022-09-13T16:35:58;3.70;;;1.23;;
47519;SDS011;33252;48.122;11.538;2022-09-13T16:38:24;3.58;;;1.08;;
47519;SDS011;33252;48.122;11.538;2022-09-13T16:40:50;1.70;;;1.38;;
47519;SDS011;33252;48.122;11.538;2022-09-13T16:43:15;1.10;;;0.65;;
47519;SDS011;33252;48.122;11.538;2022-09-13T16:45:42;3.28;;;1.42;;
47519;SDS011;33252;48.122;11.538;2022-09-13T16:48:09;2.55;;;0.90;;
47519;SDS011;33252;48.122;11.538;2022-09-13T16:50:37;2.72;;;1.30;;
47519;SDS011;33252;48.122;11.538;2022-09-13T16:53:04;2.65;;;1.20;;
47519;SDS011;33252;48.122;11.538;2022-09-13T16:55:30;2.90;;;1.20;;
47519;SDS011;33252;48.122;11.538;2022-09-13T16:57:55;7.63;;;1.60;;
47519;SDS011;33252;48.122;11.538;2022-09-13T17:00:21;2.65;;;1.52;;
47519;SDS011;33252;48.122;11.538;2022-09-13T17:02:48;8.07;;;1.60;;
47519;SDS011;33252;48.122;11.538;2022-09-13T17:05:14;3.45;;;1.70;;
47519;SDS011;33252;48.122;11.538;2022-09-13T17:07:40;2.00;;;1.40;;
47519;SDS011;33252;48.122;11.538;2022-09-13T17:10:06;5.30;;;1.50;;
47519;SDS011;33252;48.122;11.538;2022-09-13T17:12:32;5.05;;;1.63;;
47519;SDS011;33252;48.122;11.538;2022-09-13T17:14:58;4.68;;;1.42;;
47519;SDS011;33252;48.122;11.538;2022-09-13T17:17:24;4.15;;;1.38;;
47519;SDS011;33252;48.122;11.538;2022-09-13T17:19:50;3.88;;;1.40;;
47519;SDS011;33252;48.122;11.538;2022-09-13T17:22:16;6.07;;;1.35;;
47519;SDS011;33252;48.122;11.538;2022-09-13T17:24:42;4.50;;;1.92;;
47519;SDS011;33252;48.122;11.538;2022-09-13T17:27:08;4.00;;;1.73;;
47519;SDS011;33252;48.122;11.538;2022-09-13T17:29:34;4.22;;;2.63;;
47519;SDS011;33252;48.122;11.538;2022-09-13T17:32:01;4.82;;;2.28;;
47519;SDS011;33252;48.122;11.538;2022-09-13T17:34:27;4.65;;;3.08;;
47519;SDS011;33252;48.122;11.538;2022-09-13T17:36:54;10.82;;;2.58;;
47519;SDS011;33252;48.122;11.538;2022-09-13T17:39:21;3.50;;;2.30;;
47519;SDS011;33252;48.122;11.538;2022-09-13T17:41:47;5.03;;;2.08;;
47519;SDS011;33252;48.122;11.538;2022-09-13T17:44:13;5.22;;;2.20;;
47519;SDS011;33252;48.122;11.538;2022-09-13T17:46:40;7.22;;;2.53;;
47519;SDS011;33252;48.122;11.538;2022-09-13T17:49:06;5.68;;;2.35;;
47519;SDS011;33252;48.122;11.538;2022-09-13T17:51:31;6.72;;;2.72;;
47519;SDS011;33252;48.122;11.538;2022-09-13T17:53:59;5.82;;;3.20;;
47519;SDS011;33252;48.122;11.538;2022-09-13T17:56:28;5.35;;;2.83;;
47519;SDS011;33252;48.122;11.538;2022-09-13T17:58:56;4.53;;;2.67;;
47519;SDS011;33252;48.122;11.538;2022-09-13T18:01:27;4.03;;;2.40;;
47519;SDS011;33252;48.122;11.538;2022-09-13T18:03:53;6.30;;;3.25;;
47519;SDS011;33252;48.122;11.538;2022-09-13T18:06:19;9.18;;;3.60;;
47519;SDS011;33252;48.122;11.538;2022-09-13T18:08:45;3.53;;;2.42;;
47519;SDS011;33252;48.122;11.538;2022-09-13T18:11:12;5.20;;;2.97;;
47519;SDS011;33252;48.122;11.538;2022-09-13T18:13:40;7.90;;;3.10;;
47519;SDS011;33252;48.122;11.538;2022-09-13T18:16:08;7.30;;;2.92;;
47519;SDS011;33252;48.122;11.538;2022-09-13T18:18:38;5.28;;;2.88;;
47519;SDS011;33252;48.122;11.538;2022-09-13T18:21:04;3.65;;;2.40;;
47519;SDS011;33252;48.122;11.538;2022-09-13T18:23:31;5.60;;;3.00;;
47519;SDS011;33252;48.122;11.538;2022-09-13T18:26:05;5.07;;;2.55;;
47519;SDS011;33252;48.122;11.538;2022-09-13T18:28:34;4.30;;;2.08;;
47519;SDS011;33252;48.122;11.538;2022-09-13T18:31:00;5.20;;;2.75;;
47519;SDS011;33252;48.122;11.538;2022-09-13T18:33:29;5.30;;;2.92;;
47519;SDS011;33252;48.122;11.538;2022-09-13T18:35:59;7.18;;;3.05;;
47519;SDS011;33252;48.122;11.538;2022-09-13T18:38:33;4.00;;;2.80;;
47519;SDS011;33252;48.122;11.538;2022-09-13T18:41:05;5.50;;;2.40;;
47519;SDS011;33252;48.122;11.538;2022-09-13T18:43:36;5.00;;;2.83;;
47519;SDS011;33252;48.122;11.538;2022-09-13T18:46:04;6.22;;;3.40;;